Time;durP1;ratioP1;P1;durP2;ratioP2;P2;SDS_P1;SDS_P2;PMS_P1;PMS_P2;Temp;Humidity;BMP_temperature;BMP_pressure;BME280_temperature;BME280_humidity;BME280_pressure;Samples;Min_cycle;Max_cycle;Signal;HPM_P1;HPM_P2
2022/09/29 00:00:30;;;;;;;;;;;;;;;;;;5076430;28;19936;-69
2022/09/29 00:02:57;;;;;;;;;;;;;;;;;;5077970;28;20014;-69
2022/09/29 00:05:24;;;;;;;;;;;;;;;;;;5078147;28;19985;-69
2022/09/29 00:07:51;;;;;;;;;;;;;;;;;;5086602;28;19928;-69
2022/09/29 00:10:18;;;;;;;;;;;;;;;;;;5080768;28;19943;-69
2022/09/29 00:12:45;;;;;;;;;;;;;;;;;;5082812;28;19928;-69
2022/09/29 00:15:12;;;;;;;;;;;;;;;;;;5084980;28;19985;-69
2022/09/29 00:17:39;;;;;;;;;;;;;;;;;;5078483;28;19925;-69
2022/09/29 00:20:07;;;;;;;;;;;;;;;;;;5078330;28;20399;-69
2022/09/29 00:22:34;;;;;;;;;;;;;;;;;;5087884;28;19932;-69
2022/09/29 00:25:01;;;;;;;;;;;;;;;;;;5079960;28;20600;-69
2022/09/29 00:27:28;;;;;;;;;;;;;;;;;;5081367;28;19966;-69
2022/09/29 00:29:55;;;;;;;;;;;;;;;;;;5079670;28;20323;-69
2022/09/29 00:32:22;;;;;;;;;;;;;;;;;;5084977;28;19927;-69
2022/09/29 00:34:49;;;;;;;;;;;;;;;;;;5080749;28;19943;-69
2022/09/29 00:37:16;;;;;;;;;;;;;;;;;;5080663;28;19928;-69
2022/09/29 00:39:43;;;;;;;;;;;;;;;;;;5082636;28;19931;-69
2022/09/29 00:42:10;;;;;;;;;;;;;;;;;;5079081;28;20308;-69
2022/09/29 00:44:37;;;;;;;;;;;;;;;;;;5075393;28;19932;-69
2022/09/29 00:47:04;;;;;;;;;;;;;;;;;;5076137;28;20328;-69
2022/09/29 00:49:31;;;;;;;;;;;;;;;;;;5077350;28;19935;-69
2022/09/29 00:51:58;;;;;;;;;;;;;;;;;;5086277;28;19923;-69
2022/09/29 00:54:29;;;;;;;;;;;;;;;;;;5075297;28;19982;-70
2022/09/29 00:56:56;;;;;;;;;;;;;;;;;;5082898;28;19928;-69
2022/09/29 00:59:23;;;;;;;;;;;;;;;;;;5081864;28;19932;-69
2022/09/29 01:01:50;;;;;;;;;;;;;;;;;;5083123;28;19928;-69
2022/09/29 01:04:17;;;;;;;;;;;;;;;;;;5081734;28;19975;-69
2022/09/29 01:06:44;;;;;;;;;;;;;;;;;;5084482;28;19924;-69
2022/09/29 01:09:11;;;;;;;;;;;;;;;;;;5082826;28;19982;-69
2022/09/29 01:11:38;;;;;;;;;;;;;;;;;;5078864;28;19928;-69
2022/09/29 01:14:05;;;;;;;;;;;;;;;;;;5082950;28;20343;-69
2022/09/29 01:16:32;;;;;;;;;;;;;;;;;;5090986;28;19928;-69
2022/09/29 01:18:59;;;;;;;;;;;;;;;;;;5084862;28;19931;-69
2022/09/29 01:21:26;;;;;;;;;;;;;;;;;;5086636;28;19928;-69
2022/09/29 01:23:53;;;;;;;;;;;;;;;;;;5079910;28;19936;-69
2022/09/29 01:26:20;;;;;;;;;;;;;;;;;;5075993;28;19935;-69
2022/09/29 01:28:47;;;;;;;;;;;;;;;;;;5083580;28;19932;-69
2022/09/29 01:31:14;;;;;;;;;;;;;;;;;;5085277;28;20385;-69
2022/09/29 01:33:41;;;;;;;;;;;;;;;;;;5081474;28;19932;-69
2022/09/29 01:36:08;;;;;;;;;;;;;;;;;;5082071;28;20295;-69
2022/09/29 01:38:35;;;;;;;;;;;;;;;;;;5081150;28;19931;-69
2022/09/29 01:41:02;;;;;;;;;;;;;;;;;;5087090;28;20415;-69
2022/09/29 01:43:29;;;;;;;;;;;;;;;;;;5078830;28;19931;-69
2022/09/29 01:45:56;;;;;;;;;;;;;;;;;;5086979;28;19932;-69
2022/09/29 01:48:23;;;;;;;;;;;;;;;;;;5082353;28;19928;-69
2022/09/29 01:50:50;;;;;;;;;;;;;;;;;;5086419;28;19932;-69
2022/09/29 01:53:17;;;;;;;;;;;;;;;;;;5080383;28;19931;-69
2022/09/29 01:55:44;;;;;;;;;;;;;;;;;;5077788;28;19928;-69
2022/09/29 01:58:11;;;;;;;;;;;;;;;;;;5085668;28;20501;-69
2022/09/29 02:00:38;;;;;;;;;;;;;;;;;;5090834;28;19928;-69
2022/09/29 02:03:05;;;;;;;;;;;;;;;;;;5083026;28;20640;-69
2022/09/29 02:05:32;;;;;;;;;;;;;;;;;;5085321;28;19932;-69
2022/09/29 02:07:59;;;;;;;;;;;;;;;;;;5086373;28;19932;-69
2022/09/29 02:10:26;;;;;;;;;;;;;;;;;;5088531;28;19935;-69
2022/09/29 02:12:55;;;;;;;;;;;;;;;;;;5081299;28;20348;-69
2022/09/29 02:15:25;;;;;;;;;;;;;;;;;;5088255;28;20015;-69
2022/09/29 02:17:52;;;;;;;;;;;;;;;;;;5084528;28;19932;-69
2022/09/29 02:20:19;;;;;;;;;;;;;;;;;;5093050;28;19946;-69
2022/09/29 02:22:46;;;;;;;;;;;;;;;;;;5089443;28;19935;-69
2022/09/29 02:25:14;;;;;;;;;;;;;;;;;;5081435;28;19924;-69
2022/09/29 02:27:41;;;;;;;;;;;;;;;;;;5084108;28;20831;-69
2022/09/29 02:30:08;;;;;;;;;;;;;;;;;;5087122;28;19924;-69
2022/09/29 02:32:35;;;;;;;;;;;;;;;;;;5095979;28;19928;-69
2022/09/29 02:35:02;;;;;;;;;;;;;;;;;;5089880;28;19933;-69
2022/09/29 02:37:29;;;;;;;;;;;;;;;;;;5088638;28;19931;-69
2022/09/29 02:39:57;;;;;;;;;;;;;;;;;;5090320;28;19928;-69
2022/09/29 02:42:24;;;;;;;;;;;;;;;;;;5087691;28;19924;-69
2022/09/29 02:44:51;;;;;;;;;;;;;;;;;;5087554;28;20753;-70
2022/09/29 02:47:18;;;;;;;;;;;;;;;;;;5092040;28;19924;-69
2022/09/29 02:49:45;;;;;;;;;;;;;;;;;;5087182;28;19932;-69
2022/09/29 02:52:12;;;;;;;;;;;;;;;;;;5095012;28;19928;-69
2022/09/29 02:54:40;;;;;;;;;;;;;;;;;;5084590;28;19932;-69
2022/09/29 02:57:07;;;;;;;;;;;;;;;;;;5096082;28;19954;-69
2022/09/29 02:59:34;;;;;;;;;;;;;;;;;;5085433;28;19924;-69
2022/09/29 03:02:01;;;;;;;;;;;;;;;;;;5091398;28;20005;-69
2022/09/29 03:04:29;;;;;;;;;;;;;;;;;;5088714;28;19928;-69
2022/09/29 03:06:56;;;;;;;;;;;;;;;;;;5089023;28;19981;-69
2022/09/29 03:09:23;;;;;;;;;;;;;;;;;;5078875;28;19982;-69
2022/09/29 03:11:50;;;;;;;;;;;;;;;;;;5091758;28;19931;-69
2022/09/29 03:14:17;;;;;;;;;;;;;;;;;;5085415;28;19989;-69
2022/09/29 03:16:44;;;;;;;;;;;;;;;;;;5082578;28;20304;-69
2022/09/29 03:19:11;;;;;;;;;;;;;;;;;;5088267;28;19932;-69
2022/09/29 03:21:38;;;;;;;;;;;;;;;;;;5097578;28;19927;-69
2022/09/29 03:24:05;;;;;;;;;;;;;;;;;;5091813;28;20583;-69
2022/09/29 03:26:32;;;;;;;;;;;;;;;;;;5093734;28;20425;-69
2022/09/29 03:29:00;;;;;;;;;;;;;;;;;;5086406;28;19975;-69
2022/09/29 03:31:27;;;;;;;;;;;;;;;;;;5087688;28;19928;-69
2022/09/29 03:33:54;;;;;;;;;;;;;;;;;;5087956;28;19924;-69
2022/09/29 03:36:21;;;;;;;;;;;;;;;;;;5086034;28;20413;-69
2022/09/29 03:38:48;;;;;;;;;;;;;;;;;;5087392;28;19932;-69
2022/09/29 03:41:15;;;;;;;;;;;;;;;;;;5086359;28;20573;-69
2022/09/29 03:43:42;;;;;;;;;;;;;;;;;;5085463;28;19928;-69
2022/09/29 03:46:09;;;;;;;;;;;;;;;;;;5087401;28;19932;-69
2022/09/29 03:48:36;;;;;;;;;;;;;;;;;;5086417;28;19928;-69
2022/09/29 03:51:03;;;;;;;;;;;;;;;;;;5083566;28;20332;-69
2022/09/29 03:53:31;;;;;;;;;;;;;;;;;;5074800;28;20344;-69
2022/09/29 03:55:58;;;;;;;;;;;;;;;;;;5086502;28;19927;-69
2022/09/29 03:58:25;;;;;;;;;;;;;;;;;;5078614;28;19925;-69
2022/09/29 04:00:52;;;;;;;;;;;;;;;;;;5084567;28;20421;-69
2022/09/29 04:03:19;;;;;;;;;;;;;;;;;;5091872;28;19931;-69
2022/09/29 04:05:46;;;;;;;;;;;;;;;;;;5083287;28;19932;-69
2022/09/29 04:08:13;;;;;;;;;;;;;;;;;;5081121;28;19928;-69
2022/09/29 04:10:40;;;;;;;;;;;;;;;;;;5072921;28;20561;-70
2022/09/29 04:13:07;;;;;;;;;;;;;;;;;;5081632;28;19931;-69
2022/09/29 04:15:34;;;;;;;;;;;;;;;;;;5082365;28;19938;-69
2022/09/29 04:18:01;;;;;;;;;;;;;;;;;;5083007;28;20324;-69
2022/09/29 04:20:28;;;;;;;;;;;;;;;;;;5087582;28;19988;-69
2022/09/29 04:22:55;;;;;;;;;;;;;;;;;;5090878;28;19931;-69
2022/09/29 04:25:22;;;;;;;;;;;;;;;;;;5085142;28;20534;-69
2022/09/29 04:27:49;;;;;;;;;;;;;;;;;;5087856;28;20026;-69
2022/09/29 04:30:17;;;;;;;;;;;;;;;;;;5086273;28;20321;-69
2022/09/29 04:32:44;;;;;;;;;;;;;;;;;;5085036;28;19970;-69
2022/09/29 04:35:11;;;;;;;;;;;;;;;;;;5087105;28;19978;-69
2022/09/29 04:37:38;;;;;;;;;;;;;;;;;;5087524;28;19928;-69
2022/09/29 04:40:05;;;;;;;;;;;;;;;;;;5088010;28;19939;-70
2022/09/29 04:42:32;;;;;;;;;;;;;;;;;;5090592;28;19942;-69
2022/09/29 04:44:59;;;;;;;;;;;;;;;;;;5078290;28;19932;-69
2022/09/29 04:47:26;;;;;;;;;;;;;;;;;;5073135;28;19925;-69
2022/09/29 04:49:53;;;;;;;;;;;;;;;;;;5077761;28;20438;-70
2022/09/29 04:52:20;;;;;;;;;;;;;;;;;;5073961;28;19924;-69
2022/09/29 04:54:47;;;;;;;;;;;;;;;;;;5078962;28;19928;-69
2022/09/29 04:57:14;;;;;;;;;;;;;;;;;;5075689;28;19924;-69
2022/09/29 04:59:41;;;;;;;;;;;;;;;;;;5074234;28;19928;-69
2022/09/29 05:02:08;;;;;;;;;;;;;;;;;;5076316;28;20575;-69
2022/09/29 05:04:35;;;;;;;;;;;;;;;;;;5078558;28;19925;-69
2022/09/29 05:07:02;;;;;;;;;;;;;;;;;;5077304;28;19932;-69
2022/09/29 05:09:29;;;;;;;;;;;;;;;;;;5072561;28;19932;-69
2022/09/29 05:11:56;;;;;;;;;;;;;;;;;;5074990;28;19928;-69
2022/09/29 05:14:23;;;;;;;;;;;;;;;;;;5079859;28;19927;-69
2022/09/29 05:16:50;;;;;;;;;;;;;;;;;;5076389;28;19925;-69
2022/09/29 05:19:17;;;;;;;;;;;;;;;;;;5073289;28;19928;-69
2022/09/29 05:21:45;;;;;;;;;;;;;;;;;;5079301;28;20488;-69
2022/09/29 05:24:12;;;;;;;;;;;;;;;;;;5083214;28;19940;-69
2022/09/29 05:26:39;;;;;;;;;;;;;;;;;;5082041;28;19924;-70
2022/09/29 05:29:06;;;;;;;;;;;;;;;;;;5084662;28;19936;-70
2022/09/29 05:31:33;;;;;;;;;;;;;;;;;;5084209;28;20059;-69
2022/09/29 05:34:00;;;;;;;;;;;;;;;;;;5086210;28;20056;-69
2022/09/29 05:36:27;;;;;;;;;;;;;;;;;;5087622;28;19985;-70
2022/09/29 05:38:55;;;;;;;;;;;;;;;;;;5080322;28;20370;-69
2022/09/29 05:41:22;;;;;;;;;;;;;;;;;;5074387;28;19931;-69
2022/09/29 05:43:49;;;;;;;;;;;;;;;;;;5073008;28;19994;-69
2022/09/29 05:46:18;;;;;;;;;;;;;;;;;;5070078;28;19936;-69
2022/09/29 05:48:45;;;;;;;;;;;;;;;;;;5067628;28;20453;-69
2022/09/29 05:51:12;;;;;;;;;;;;;;;;;;5075033;28;19927;-69
2022/09/29 05:53:39;;;;;;;;;;;;;;;;;;5080983;28;19929;-69
2022/09/29 05:56:06;;;;;;;;;;;;;;;;;;5077584;28;20378;-69
2022/09/29 05:58:33;;;;;;;;;;;;;;;;;;5082215;28;20376;-69
2022/09/29 06:01:00;;;;;;;;;;;;;;;;;;5089124;28;20367;-69
2022/09/29 06:03:27;;;;;;;;;;;;;;;;;;5081773;28;19934;-69
2022/09/29 06:05:54;;;;;;;;;;;;;;;;;;5078319;28;19929;-69
2022/09/29 06:08:21;;;;;;;;;;;;;;;;;;5085886;28;19932;-70
2022/09/29 06:10:48;;;;;;;;;;;;;;;;;;5090720;28;19963;-69
2022/09/29 06:13:15;;;;;;;;;;;;;;;;;;5081540;28;19924;-69
2022/09/29 06:15:42;;;;;;;;;;;;;;;;;;5085578;28;19940;-69
2022/09/29 06:18:09;;;;;;;;;;;;;;;;;;5075840;28;20021;-69
2022/09/29 06:20:38;;;;;;;;;;;;;;;;;;5080183;28;19947;-69
2022/09/29 06:23:05;;;;;;;;;;;;;;;;;;5079618;28;19959;-69
2022/09/29 06:25:32;;;;;;;;;;;;;;;;;;5082432;28;20401;-69
2022/09/29 06:27:59;;;;;;;;;;;;;;;;;;5085732;28;19932;-69
2022/09/29 06:30:26;;;;;;;;;;;;;;;;;;5082668;28;20378;-69
2022/09/29 06:32:53;;;;;;;;;;;;;;;;;;5088975;28;19932;-69
2022/09/29 06:38:05;;;;;;;;;;;;;;;;;;5073446;28;20286;-69
2022/09/29 06:40:32;;;;;;;;;;;;;;;;;;5079051;28;19935;-69
2022/09/29 06:42:59;;;;;;;;;;;;;;;;;;5077922;28;19943;-70
2022/09/29 06:45:26;;;;;;;;;;;;;;;;;;5073565;28;19993;-69
2022/09/29 06:47:53;;;;;;;;;;;;;;;;;;5073826;28;19939;-69
2022/09/29 06:50:20;;;;;;;;;;;;;;;;;;5072556;28;19935;-69
2022/09/29 06:52:47;;;;;;;;;;;;;;;;;;5078213;28;20018;-69
2022/09/29 06:55:14;;;;;;;;;;;;;;;;;;5082880;28;19931;-69
2022/09/29 06:57:44;;;;;;;;;;;;;;;;;;5082682;28;20276;-69
2022/09/29 07:00:11;;;;;;;;;;;;;;;;;;5085171;28;20413;-69
2022/09/29 07:02:38;;;;;;;;;;;;;;;;;;5082011;28;19970;-69
2022/09/29 07:05:05;;;;;;;;;;;;;;;;;;5085160;28;19943;-69
2022/09/29 07:07:32;;;;;;;;;;;;;;;;;;5081483;28;19940;-69
2022/09/29 07:09:59;;;;;;;;;;;;;;;;;;5083364;28;19932;-69
2022/09/29 07:12:26;;;;;;;;;;;;;;;;;;5083181;28;19928;-69
2022/09/29 07:14:53;;;;;;;;;;;;;;;;;;5082333;28;20489;-69
2022/09/29 07:17:20;;;;;;;;;;;;;;;;;;5080662;28;19935;-70
2022/09/29 07:19:47;;;;;;;;;;;;;;;;;;5082180;28;19936;-70
2022/09/29 07:22:14;;;;;;;;;;;;;;;;;;5083615;28;20441;-70
2022/09/29 07:24:42;;;;;;;;;;;;;;;;;;5083686;28;19928;-70
2022/09/29 07:27:09;;;;;;;;;;;;;;;;;;5087286;28;20006;-70
2022/09/29 07:29:36;;;;;;;;;;;;;;;;;;5090998;28;19975;-70
2022/09/29 07:32:03;;;;;;;;;;;;;;;;;;5083254;28;19958;-69
2022/09/29 07:34:30;;;;;;;;;;;;;;;;;;5095541;28;19924;-70
2022/09/29 07:36:57;;;;;;;;;;;;;;;;;;5090433;28;19928;-70
2022/09/29 07:39:24;;;;;;;;;;;;;;;;;;5087656;28;19932;-69
2022/09/29 07:41:51;;;;;;;;;;;;;;;;;;5078725;28;19963;-70
2022/09/29 07:44:18;;;;;;;;;;;;;;;;;;5079715;28;19932;-70
2022/09/29 07:46:45;;;;;;;;;;;;;;;;;;5080898;28;19935;-69
2022/09/29 07:49:12;;;;;;;;;;;;;;;;;;5082191;28;19951;-70
2022/09/29 07:51:39;;;;;;;;;;;;;;;;;;5079686;28;20436;-70
2022/09/29 07:54:06;;;;;;;;;;;;;;;;;;5076395;28;20034;-70
2022/09/29 07:56:34;;;;;;;;;;;;;;;;;;5080557;28;19928;-70
2022/09/29 07:59:02;;;;;;;;;;;;;;;;;;5084024;28;19932;-70
2022/09/29 08:01:30;;;;;;;;;;;;;;;;;;5076804;28;20007;-69
2022/09/29 08:03:57;;;;;;;;;;;;;;;;;;5081177;28;19932;-69
2022/09/29 08:06:24;;;;;;;;;;;;;;;;;;5076922;28;20055;-70
2022/09/29 08:08:51;;;;;;;;;;;;;;;;;;5069741;28;19936;-70
2022/09/29 08:11:19;;;;;;;;;;;;;;;;;;5070429;28;19990;-70
2022/09/29 08:13:46;;;;;;;;;;;;;;;;;;5072049;28;19925;-70
2022/09/29 08:16:13;;;;;;;;;;;;;;;;;;5078245;28;19931;-69
2022/09/29 08:18:40;;;;;;;;;;;;;;;;;;5081172;28;19935;-70
2022/09/29 08:21:07;;;;;;;;;;;;;;;;;;5093945;28;20432;-70
2022/09/29 08:23:34;;;;;;;;;;;;;;;;;;5086832;28;19925;-70
2022/09/29 08:26:01;;;;;;;;;;;;;;;;;;5090523;28;19934;-70
2022/09/29 08:28:28;;;;;;;;;;;;;;;;;;5084035;28;20416;-71
2022/09/29 08:30:55;;;;;;;;;;;;;;;;;;5091220;28;19976;-70
2022/09/29 08:33:22;;;;;;;;;;;;;;;;;;5086966;28;20378;-70
2022/09/29 08:35:49;;;;;;;;;;;;;;;;;;5096771;28;19932;-70
2022/09/29 08:38:16;;;;;;;;;;;;;;;;;;5093316;28;20294;-70
2022/09/29 08:40:43;;;;;;;;;;;;;;;;;;5088907;28;19928;-70
2022/09/29 08:43:10;;;;;;;;;;;;;;;;;;5086627;28;19928;-70
2022/09/29 08:45:37;;;;;;;;;;;;;;;;;;5092739;28;19932;-70
2022/09/29 08:48:04;;;;;;;;;;;;;;;;;;5082260;28;19927;-70
2022/09/29 08:50:31;;;;;;;;;;;;;;;;;;5086166;28;19928;-71
2022/09/29 08:52:59;;;;;;;;;;;;;;;;;;5085202;28;19939;-70
2022/09/29 08:55:26;;;;;;;;;;;;;;;;;;5084604;28;20459;-70
2022/09/29 08:57:53;;;;;;;;;;;;;;;;;;5084790;28;20089;-70
2022/09/29 09:00:20;;;;;;;;;;;;;;;;;;5082824;28;19928;-70
2022/09/29 09:02:47;;;;;;;;;;;;;;;;;;5082590;28;19936;-70
2022/09/29 09:05:14;;;;;;;;;;;;;;;;;;5087007;28;20322;-71
2022/09/29 09:07:41;;;;;;;;;;;;;;;;;;5085523;28;19932;-70
2022/09/29 09:10:08;;;;;;;;;;;;;;;;;;5089441;28;19940;-70
2022/09/29 09:12:35;;;;;;;;;;;;;;;;;;5075801;28;19928;-70
2022/09/29 09:15:02;;;;;;;;;;;;;;;;;;5083201;28;19924;-70
2022/09/29 09:17:29;;;;;;;;;;;;;;;;;;5077469;28;19932;-70
2022/09/29 09:19:57;;;;;;;;;;;;;;;;;;5078292;28;20306;-70
2022/09/29 09:22:25;;;;;;;;;;;;;;;;;;5084012;28;19924;-70
2022/09/29 09:24:52;;;;;;;;;;;;;;;;;;5088248;28;20420;-70
2022/09/29 09:27:19;;;;;;;;;;;;;;;;;;5090477;28;19927;-70
2022/09/29 09:29:46;;;;;;;;;;;;;;;;;;5088319;28;19928;-71
2022/09/29 09:32:13;;;;;;;;;;;;;;;;;;5092272;28;20545;-71
2022/09/29 09:34:40;;;;;;;;;;;;;;;;;;5092766;28;19924;-71
2022/09/29 09:37:07;;;;;;;;;;;;;;;;;;5089352;28;19989;-70
2022/09/29 09:39:34;;;;;;;;;;;;;;;;;;5097587;28;19928;-71
2022/09/29 09:42:01;;;;;;;;;;;;;;;;;;5093599;28;19932;-70
2022/09/29 09:44:28;;;;;;;;;;;;;;;;;;5087373;28;20015;-71
2022/09/29 09:46:55;;;;;;;;;;;;;;;;;;5093056;28;19987;-70
2022/09/29 09:49:22;;;;;;;;;;;;;;;;;;5096660;28;19939;-71
2022/09/29 09:51:49;;;;;;;;;;;;;;;;;;5091583;28;20650;-71
2022/09/29 09:54:16;;;;;;;;;;;;;;;;;;5095910;28;19924;-71
2022/09/29 09:56:43;;;;;;;;;;;;;;;;;;5089184;28;20006;-70
2022/09/29 09:59:10;;;;;;;;;;;;;;;;;;5087606;28;19932;-70
2022/09/29 10:01:37;;;;;;;;;;;;;;;;;;5088629;28;19955;-71
2022/09/29 10:04:05;;;;;;;;;;;;;;;;;;5097002;28;20452;-71
2022/09/29 10:06:32;;;;;;;;;;;;;;;;;;5087092;28;19935;-71
2022/09/29 10:08:59;;;;;;;;;;;;;;;;;;5084487;28;19928;-70
2022/09/29 10:11:26;;;;;;;;;;;;;;;;;;5091885;28;19981;-71
2022/09/29 10:13:53;;;;;;;;;;;;;;;;;;5088857;28;19924;-71
2022/09/29 10:16:20;;;;;;;;;;;;;;;;;;5090654;28;20076;-70
2022/09/29 10:18:51;;;;;;;;;;;;;;;;;;5090624;28;19932;-70
2022/09/29 10:21:18;;;;;;;;;;;;;;;;;;5089189;28;19924;-70
2022/09/29 10:23:45;;;;;;;;;;;;;;;;;;5084688;28;19935;-70
2022/09/29 10:26:12;;;;;;;;;;;;;;;;;;5085231;28;19928;-70
2022/09/29 10:28:39;;;;;;;;;;;;;;;;;;5085635;28;19982;-70
2022/09/29 10:31:06;;;;;;;;;;;;;;;;;;5088532;28;19924;-70
2022/09/29 10:33:33;;;;;;;;;;;;;;;;;;5085978;28;19932;-70
2022/09/29 10:36:00;;;;;;;;;;;;;;;;;;5088470;28;19928;-70
2022/09/29 10:38:27;;;;;;;;;;;;;;;;;;5091359;28;19927;-70
2022/09/29 10:40:56;;;;;;;;;;;;;;;;;;5093439;28;19928;-71
2022/09/29 10:43:24;;;;;;;;;;;;;;;;;;5094142;28;19931;-71
2022/09/29 10:45:52;;;;;;;;;;;;;;;;;;5103129;28;19971;-70
2022/09/29 10:48:19;;;;;;;;;;;;;;;;;;5095840;28;20445;-71
2022/09/29 10:50:46;;;;;;;;;;;;;;;;;;5097491;28;19934;-70
2022/09/29 10:53:13;;;;;;;;;;;;;;;;;;5090659;28;19924;-70
2022/09/29 10:55:40;;;;;;;;;;;;;;;;;;5093590;28;19925;-70
2022/09/29 10:58:07;;;;;;;;;;;;;;;;;;5099460;28;19932;-70
2022/09/29 11:00:35;;;;;;;;;;;;;;;;;;5083549;28;20295;-71
2022/09/29 11:03:02;;;;;;;;;;;;;;;;;;5091828;28;20301;-71
2022/09/29 11:05:29;;;;;;;;;;;;;;;;;;5095951;28;20006;-70
2022/09/29 11:07:57;;;;;;;;;;;;;;;;;;5095453;28;20092;-71
2022/09/29 11:10:24;;;;;;;;;;;;;;;;;;5089121;28;20843;-71
2022/09/29 11:12:51;;;;;;;;;;;;;;;;;;5087905;28;19928;-70
2022/09/29 11:15:18;;;;;;;;;;;;;;;;;;5092056;28;19930;-70
2022/09/29 11:17:45;;;;;;;;;;;;;;;;;;5091873;28;20546;-70
2022/09/29 11:20:13;;;;;;;;;;;;;;;;;;5092576;28;19958;-70
2022/09/29 11:22:40;;;;;;;;;;;;;;;;;;5083781;28;20035;-71
2022/09/29 11:25:07;;;;;;;;;;;;;;;;;;5087595;28;20298;-70
2022/09/29 11:27:34;;;;;;;;;;;;;;;;;;5091684;28;20545;-70
2022/09/29 11:30:01;;;;;;;;;;;;;;;;;;5074302;28;19982;-70
2022/09/29 11:32:29;;;;;;;;;;;;;;;;;;5074703;28;20375;-70
2022/09/29 11:34:56;;;;;;;;;;;;;;;;;;5083609;28;20614;-70
2022/09/29 11:37:23;;;;;;;;;;;;;;;;;;5081864;28;19938;-71
2022/09/29 11:39:50;;;;;;;;;;;;;;;;;;5079886;28;20462;-71
2022/09/29 11:42:17;;;;;;;;;;;;;;;;;;5072772;28;19929;-71
2022/09/29 11:44:44;;;;;;;;;;;;;;;;;;5073399;28;19932;-71
2022/09/29 11:47:11;;;;;;;;;;;;;;;;;;5094090;28;19927;-70
2022/09/29 11:49:40;;;;;;;;;;;;;;;;;;5091054;28;20597;-70
2022/09/29 11:52:07;;;;;;;;;;;;;;;;;;5096175;28;19928;-71
2022/09/29 11:54:34;;;;;;;;;;;;;;;;;;5078742;28;20022;-71
2022/09/29 11:57:01;;;;;;;;;;;;;;;;;;5081872;28;20698;-71
2022/09/29 11:59:28;;;;;;;;;;;;;;;;;;5087023;28;19928;-71
2022/09/29 12:01:55;;;;;;;;;;;;;;;;;;5091738;28;19935;-71
2022/09/29 12:04:22;;;;;;;;;;;;;;;;;;5088889;28;19932;-71
2022/09/29 12:06:50;;;;;;;;;;;;;;;;;;5088409;28;20712;-70
2022/09/29 12:09:17;;;;;;;;;;;;;;;;;;5086803;28;19935;-71
2022/09/29 12:11:44;;;;;;;;;;;;;;;;;;5083965;28;19931;-71
2022/09/29 12:14:11;;;;;;;;;;;;;;;;;;5085080;28;20545;-70
2022/09/29 12:16:38;;;;;;;;;;;;;;;;;;5092667;28;19931;-71
2022/09/29 12:19:05;;;;;;;;;;;;;;;;;;5086502;28;20014;-71
2022/09/29 12:21:32;;;;;;;;;;;;;;;;;;5083198;28;19974;-71
2022/09/29 12:23:59;;;;;;;;;;;;;;;;;;5081100;28;20367;-71
2022/09/29 12:26:26;;;;;;;;;;;;;;;;;;5075277;28;19935;-71
2022/09/29 12:28:53;;;;;;;;;;;;;;;;;;5073424;28;19924;-71
2022/09/29 12:31:21;;;;;;;;;;;;;;;;;;5070320;28;19935;-70
2022/09/29 12:33:48;;;;;;;;;;;;;;;;;;5075065;28;21032;-71
2022/09/29 12:38:55;;;;;;;;;;;;;;;;;;5072480;28;19925;-71
2022/09/29 12:41:22;;;;;;;;;;;;;;;;;;5071795;28;19932;-71
2022/09/29 12:43:49;;;;;;;;;;;;;;;;;;5076449;28;19935;-71
2022/09/29 12:46:17;;;;;;;;;;;;;;;;;;5082970;28;20336;-70
2022/09/29 12:48:45;;;;;;;;;;;;;;;;;;5083897;28;20415;-70
2022/09/29 12:51:12;;;;;;;;;;;;;;;;;;5083466;28;19985;-70
2022/09/29 12:53:39;;;;;;;;;;;;;;;;;;5082619;28;20389;-70
2022/09/29 12:56:06;;;;;;;;;;;;;;;;;;5068228;28;19928;-70
2022/09/29 12:58:33;;;;;;;;;;;;;;;;;;5081403;28;20382;-70
2022/09/29 13:01:00;;;;;;;;;;;;;;;;;;5086305;28;19962;-71
2022/09/29 13:03:29;;;;;;;;;;;;;;;;;;5084018;28;19931;-71
2022/09/29 13:05:56;;;;;;;;;;;;;;;;;;5091187;28;20018;-70
2022/09/29 13:08:23;;;;;;;;;;;;;;;;;;5086355;28;19924;-70
2022/09/29 13:10:50;;;;;;;;;;;;;;;;;;5089837;28;19932;-71
2022/09/29 13:13:17;;;;;;;;;;;;;;;;;;5087039;28;19935;-71
2022/09/29 13:15:44;;;;;;;;;;;;;;;;;;5094307;28;19936;-71
2022/09/29 13:18:11;;;;;;;;;;;;;;;;;;5086118;28;19939;-70
2022/09/29 13:20:42;;;;;;;;;;;;;;;;;;5088816;28;20379;-71
2022/09/29 13:23:10;;;;;;;;;;;;;;;;;;5085954;28;20553;-71
2022/09/29 13:25:37;;;;;;;;;;;;;;;;;;5072099;28;20394;-72
2022/09/29 13:28:04;;;;;;;;;;;;;;;;;;5090660;28;20658;-71
2022/09/29 13:30:31;;;;;;;;;;;;;;;;;;5084955;28;19928;-71
2022/09/29 13:32:58;;;;;;;;;;;;;;;;;;5088692;28;19924;-72
2022/09/29 13:35:26;;;;;;;;;;;;;;;;;;5074595;28;19928;-71
2022/09/29 13:37:53;;;;;;;;;;;;;;;;;;5068632;28;20444;-71
2022/09/29 13:40:20;;;;;;;;;;;;;;;;;;5073273;28;19928;-72
2022/09/29 13:42:47;;;;;;;;;;;;;;;;;;5072882;28;20379;-72
2022/09/29 13:45:15;;;;;;;;;;;;;;;;;;5058881;28;19931;-71
2022/09/29 13:47:42;;;;;;;;;;;;;;;;;;5069962;28;20022;-72
2022/09/29 13:50:09;;;;;;;;;;;;;;;;;;5072822;28;19925;-72
2022/09/29 13:52:36;;;;;;;;;;;;;;;;;;5071403;28;20469;-72
2022/09/29 13:55:03;;;;;;;;;;;;;;;;;;5074619;28;19931;-71
2022/09/29 13:57:30;;;;;;;;;;;;;;;;;;5070799;28;19928;-72
2022/09/29 13:59:59;;;;;;;;;;;;;;;;;;5072156;28;19928;-72
2022/09/29 14:02:26;;;;;;;;;;;;;;;;;;5075923;28;19974;-71
2022/09/29 14:04:54;;;;;;;;;;;;;;;;;;5073816;28;19939;-72
2022/09/29 14:07:22;;;;;;;;;;;;;;;;;;5071864;28;19925;-72
2022/09/29 14:09:49;;;;;;;;;;;;;;;;;;5071724;28;19924;-72
2022/09/29 14:12:16;;;;;;;;;;;;;;;;;;5072109;28;19929;-72
2022/09/29 14:14:43;;;;;;;;;;;;;;;;;;5075787;28;20446;-72
2022/09/29 14:17:10;;;;;;;;;;;;;;;;;;5071156;28;19924;-72
2022/09/29 14:19:37;;;;;;;;;;;;;;;;;;5072466;28;20306;-71
2022/09/29 14:22:05;;;;;;;;;;;;;;;;;;5078370;28;19928;-71
2022/09/29 14:24:32;;;;;;;;;;;;;;;;;;5073032;28;19928;-71
2022/09/29 14:26:59;;;;;;;;;;;;;;;;;;5072882;28;19943;-71
2022/09/29 14:29:26;;;;;;;;;;;;;;;;;;5072605;28;19928;-71
2022/09/29 14:31:53;;;;;;;;;;;;;;;;;;5073431;28;20011;-71
2022/09/29 14:34:21;;;;;;;;;;;;;;;;;;5071067;28;19932;-71
2022/09/29 14:36:48;;;;;;;;;;;;;;;;;;5077034;28;19939;-71
2022/09/29 14:39:15;;;;;;;;;;;;;;;;;;5073475;28;19932;-71
2022/09/29 14:41:42;;;;;;;;;;;;;;;;;;5075844;28;19928;-71
2022/09/29 14:44:09;;;;;;;;;;;;;;;;;;5074182;28;19931;-71
2022/09/29 14:52:05;;;;;;;;;;;;;;;;;;5072384;28;19921;-71
2022/09/29 14:54:40;;;;;;;;;;;;;;;;;;5077767;28;20033;-71
2022/09/29 14:57:07;;;;;;;;;;;;;;;;;;5074773;28;20012;-71
2022/09/29 14:59:34;;;;;;;;;;;;;;;;;;5077286;28;19928;-71
2022/09/29 15:02:03;;;;;;;;;;;;;;;;;;5073188;28;19935;-71
2022/09/29 15:04:30;;;;;;;;;;;;;;;;;;5075117;28;19932;-72
2022/09/29 15:06:57;;;;;;;;;;;;;;;;;;5068507;28;19928;-72
2022/09/29 15:09:24;;;;;;;;;;;;;;;;;;5074021;28;19927;-71
2022/09/29 15:11:51;;;;;;;;;;;;;;;;;;5073135;28;19932;-72
2022/09/29 15:14:18;;;;;;;;;;;;;;;;;;5079003;28;19924;-72
2022/09/29 15:16:46;;;;;;;;;;;;;;;;;;5073559;28;19932;-71
2022/09/29 15:19:13;;;;;;;;;;;;;;;;;;5068756;28;20516;-71
2022/09/29 15:21:40;;;;;;;;;;;;;;;;;;5079150;28;20007;-72
2022/09/29 15:24:07;;;;;;;;;;;;;;;;;;5082243;28;19928;-71
2022/09/29 15:26:34;;;;;;;;;;;;;;;;;;5072863;28;20427;-72
2022/09/29 15:29:01;;;;;;;;;;;;;;;;;;5084040;28;19928;-71
2022/09/29 15:31:29;;;;;;;;;;;;;;;;;;5087088;28;19931;-72
2022/09/29 15:33:56;;;;;;;;;;;;;;;;;;5084698;28;19927;-72
2022/09/29 15:36:23;;;;;;;;;;;;;;;;;;5094723;28;19981;-71
2022/09/29 15:38:50;;;;;;;;;;;;;;;;;;5088817;28;20432;-71
2022/09/29 15:41:17;;;;;;;;;;;;;;;;;;5083927;28;19928;-71
2022/09/29 15:43:45;;;;;;;;;;;;;;;;;;5076181;28;20390;-71
2022/09/29 15:46:12;;;;;;;;;;;;;;;;;;5084960;28;19928;-71
2022/09/29 15:48:39;;;;;;;;;;;;;;;;;;5078565;28;19929;-71
2022/09/29 15:51:06;;;;;;;;;;;;;;;;;;5085800;28;19934;-70
2022/09/29 15:53:33;;;;;;;;;;;;;;;;;;5092144;28;20597;-72
2022/09/29 15:56:00;;;;;;;;;;;;;;;;;;5080064;28;19939;-72
2022/09/29 15:58:27;;;;;;;;;;;;;;;;;;5086497;28;19958;-71
2022/09/29 16:00:54;;;;;;;;;;;;;;;;;;5080992;28;19977;-71
2022/09/29 16:03:22;;;;;;;;;;;;;;;;;;5092656;28;19927;-71
2022/09/29 16:05:50;;;;;;;;;;;;;;;;;;5091605;28;19932;-70
2022/09/29 16:08:20;;;;;;;;;;;;;;;;;;5087632;28;19928;-71
2022/09/29 16:10:48;;;;;;;;;;;;;;;;;;5091533;28;19932;-71
2022/09/29 16:13:15;;;;;;;;;;;;;;;;;;5090530;28;20390;-71
2022/09/29 16:15:42;;;;;;;;;;;;;;;;;;5074704;28;19932;-71
2022/09/29 16:18:09;;;;;;;;;;;;;;;;;;5080501;28;20557;-71
2022/09/29 16:20:36;;;;;;;;;;;;;;;;;;5086495;28;19979;-71
2022/09/29 16:23:03;;;;;;;;;;;;;;;;;;5089770;28;20267;-71
2022/09/29 16:25:31;;;;;;;;;;;;;;;;;;5087100;28;19924;-70
2022/09/29 16:27:58;;;;;;;;;;;;;;;;;;5088521;28;19928;-71
2022/09/29 16:30:25;;;;;;;;;;;;;;;;;;5087166;28;20283;-71
2022/09/29 16:32:52;;;;;;;;;;;;;;;;;;5087731;28;19931;-70
2022/09/29 16:35:19;;;;;;;;;;;;;;;;;;5090978;28;19931;-71
2022/09/29 16:37:46;;;;;;;;;;;;;;;;;;5095403;28;19986;-70
2022/09/29 16:40:13;;;;;;;;;;;;;;;;;;5088417;28;20431;-71
2022/09/29 16:42:40;;;;;;;;;;;;;;;;;;5087950;28;19932;-72
2022/09/29 16:45:07;;;;;;;;;;;;;;;;;;5086290;28;19928;-72
2022/09/29 16:47:34;;;;;;;;;;;;;;;;;;5085969;28;19924;-71
2022/09/29 16:50:03;;;;;;;;;;;;;;;;;;5085622;28;20309;-71
2022/09/29 16:52:30;;;;;;;;;;;;;;;;;;5086803;28;20527;-72
2022/09/29 16:54:58;;;;;;;;;;;;;;;;;;5079099;28;20383;-73